Etusivu
METAR-TAF:

METAR-TAF

Lentoasemat :

Nîmes, Ranska

Leveyspiiri: 43-45N, Pituuspiiri: 004-25E, korkeus merenpinnasta: 94 m

Tämänhetkinen sää

Tämä raportti tehtiin 48 minuuttia sitten, kello 04.30 UTC
Tuuli 6 kn luoteesta
Lämpötila 14°C
Kosteus 67%
Ilmanpaine 1013 hPa
Näkyvyys 10 km tai enemmän
ei pilviä alle 1500 m:ssä eikä cumulonimbus-pilviä

METAR: LFTW 160430Z AUTO 31006KT CAVOK 14/08 Q1013 NOSIG

Aika: 07:18 (05:18 UTC)

Sääennuste

Tämä raportti tehtiin 3 tuntia ja 18 minuuttia sitten, kello 02.00 UTC
Ennuste voimassa 16. päivästä klo 03 UTC - 17. päivään klo 03 UTC
Tuuli 10 kn lännestä/luoteesta
Näkyvyys 10 km tai enemmän
ei pilviä alle 1500 m:ssä eikä cumulonimbus-pilviä
Tulossa
16. päivästä klo 14 UTC - 16. päivään klo 16 UTC
Tuuli 10 kn lounaasta
Tulossa
16. päivästä klo 20 UTC - 16. päivään klo 22 UTC
Tuuli 4 kn eri suunnista

TAF: LFTW 160200Z 1603/1703 30010KT CAVOK BECMG 1614/1616 23010KT BECMG 1620/1622 VRB04KT

Säähavainnot ja -ennusteet yli 4000 lentoasemalta (METAR- ja TAF-raportit).

Käytössä olevat sääasemat on merkitty karttaan keltaisilla ja punaisilla pisteillä.

Aseta hiiri pisteen päälle nähdäksesi sääaseman nimen.

Klikkaa sitten nähdäksesi säähavainnot ja -ennusteet.

Kartan vaihtaminen: klikkaa mustalla rastilla varustettuja vihreitä pisteitä, niin voit zoomata sisään; viivalla varustettua vihreää pistettä, niin voit zoomata ulos tai vihreitä nuolia, niin pääset viereisille kartoille.


METAR-TAF: